Terminal Aerodrome Forecast
Issued by NWS Denver/Boulder, CO

Home | Current Version | Previous Version | Text Only | Print | Product List | Glossary On
Versions: 1 2 3 4 5 6 7 8 9 10 11 12 13 14 15 16 17 18 19 20 21 22 23 24 25 26 27 28 29 30 31 32 33 34 35 36 37 38 39 40 41 42 43 44 45 46 47 48 49 50
000
FTUS45 KBOU 021524 AAB
TAFDEN
TAF AMD
KDEN 021524Z 0215/0318 29008KT 3SM BR OVC005
      TEMPO 0215/0217 1SM BR
     FM021700 32006KT 4SM BR BKN008 BKN020
      TEMPO 0217/0219 2SM BR BKN008
     FM022000 35006KT P6SM SCT012 BKN020
     FM030100 31006KT P6SM SCT020 BKN200
     FM030400 24012KT P6SM SCT120 BKN200
     FM031000 01015KT P6SM VCSH SCT020 BKN060
     FM031300 01012KT 4SM -SN BR SCT008 OVC020
      TEMPO 0314/0318 2SM -SN OVC008=

USA.gov is the U.S. government's official web portal to all federal, state and local government web resources and services.